Time;durP1;ratioP1;P1;durP2;ratioP2;P2;SDS_P1;SDS_P2;PMS_P1;PMS_P2;Temp;Humidity;BMP_temperature;BMP_pressure;BME280_temperature;BME280_humidity;BME280_pressure;Samples;Min_cycle;Max_cycle;Signal;HPM_P1;HPM_P2
2023/11/25 09:17:52;;;;;;;7.67;3.57;;;;;;;3.45;100.00;98309.78;5109507;28;21436;-83
2023/11/25 09:20:21;;;;;;;9.70;3.27;;;;;;;4.16;100.00;98303.97;5108548;28;40464;-81
2023/11/25 09:22:50;;;;;;;6.07;2.80;;;;;;;5.00;100.00;98302.59;5091829;28;41005;-81
2023/11/25 09:25:19;;;;;;;7.23;2.90;;;;;;;5.68;95.42;98327.19;5091151;28;43973;-80
2023/11/25 09:27:47;;;;;;;5.27;3.33;;;;;;;5.94;90.82;98324.06;5091640;28;42054;-81
2023/11/25 09:30:17;;;;;;;6.63;3.00;;;;;;;6.12;88.35;98328.38;5108385;28;39854;-81
2023/11/25 09:32:45;;;;;;;8.93;3.10;;;;;;;6.23;85.32;98337.47;5109893;28;41657;-87
2023/11/25 09:35:14;;;;;;;7.10;2.90;;;;;;;6.12;83.28;98333.63;5091540;28;41639;-82
2023/11/25 09:37:44;;;;;;;6.37;2.20;;;;;;;6.27;81.71;98352.16;5091727;28;42178;-81
2023/11/25 09:40:14;;;;;;;6.87;2.70;;;;;;;6.29;80.80;98350.31;5125116;27;40034;-81
2023/11/25 09:42:43;;;;;;;4.73;2.33;;;;;;;6.35;79.39;98349.97;5091073;28;42072;-81
2023/11/25 09:45:11;;;;;;;6.50;2.67;;;;;;;6.37;79.35;98342.84;5125204;27;42034;-80
2023/11/25 09:47:39;;;;;;;7.43;2.77;;;;;;;6.33;78.29;98339.53;5091328;28;42482;-82
2023/11/25 09:50:08;;;;;;;7.10;2.60;;;;;;;6.25;76.59;98340.88;5091248;28;41319;-80
2023/11/25 09:52:44;;;;;;;7.40;2.60;;;;;;;6.35;78.21;98334.19;5091489;28;41086;-80
2023/11/25 09:55:14;;;;;;;6.20;2.30;;;;;;;6.36;78.33;98320.09;5125197;27;41622;-84
2023/11/25 09:57:44;;;;;;;4.70;2.23;;;;;;;6.33;77.77;98304.50;5091158;28;42674;-79
2023/11/25 10:00:16;;;;;;;6.97;2.33;;;;;;;6.36;77.75;98304.34;5108823;28;40001;-84
2023/11/25 10:02:45;;;;;;;6.63;2.43;;;;;;;6.47;76.92;98323.00;5090896;28;41934;-82
2023/11/25 10:05:13;;;;;;;9.37;2.37;;;;;;;6.34;77.39;98293.03;5107752;28;42827;-81
2023/11/25 10:07:42;;;;;;;8.33;2.87;;;;;;;6.51;77.53;98302.66;5091115;28;41476;-82
2023/11/25 10:10:10;;;;;;;6.90;2.37;;;;;;;6.55;76.15;98312.09;5091036;28;39665;-84
2023/11/25 10:12:41;;;;;;;4.67;2.10;;;;;;;6.74;76.88;98304.84;5090775;28;42414;-82
2023/11/25 10:15:10;;;;;;;6.87;2.13;;;;;;;7.03;75.95;98303.22;5091650;28;44070;-82
2023/11/25 10:17:38;;;;;;;7.17;2.40;;;;;;;7.36;75.07;98297.78;5091212;28;41264;-79
2023/11/25 10:20:09;;;;;;;8.20;2.90;;;;;;;7.88;72.66;98290.28;5127268;28;40914;-79
2023/11/25 10:22:47;;;;;;;4.20;2.20;;;;;;;8.00;70.46;98284.25;5117135;28;43227;-82
2023/11/25 10:25:17;;;;;;;4.00;1.83;;;;;;;8.14;69.41;98289.53;5090945;28;41933;-83
2023/11/25 10:27:45;;;;;;;9.97;2.17;;;;;;;8.51;67.80;98306.59;5102280;28;41872;-84
2023/11/25 10:30:14;;;;;;;4.80;2.00;;;;;;;8.47;67.20;98283.13;5094503;28;40224;-85
2023/11/25 10:32:42;;;;;;;5.03;2.03;;;;;;;8.49;67.98;98286.50;5077386;28;41969;-84
2023/11/25 10:35:11;;;;;;;8.63;1.90;;;;;;;8.53;67.79;98282.75;5094338;28;43733;-83
2023/11/25 10:37:39;;;;;;;4.17;1.90;;;;;;;8.44;68.87;98267.47;5093944;28;43585;-83
2023/11/25 10:40:11;;;;;;;6.60;1.90;;;;;;;8.49;68.22;98275.97;5077692;28;40417;-82
2023/11/25 10:42:42;;;;;;;4.73;1.90;;;;;;;8.40;69.11;98260.72;5093797;28;42290;-81
2023/11/25 10:45:15;;;;;;;4.63;1.80;;;;;;;8.31;68.14;98283.19;5111295;28;42695;-83
2023/11/25 10:47:43;;;;;;;6.13;2.40;;;;;;;8.11;67.92;98271.25;5111157;28;42214;-83
2023/11/25 10:50:13;;;;;;;6.33;1.90;;;;;;;7.76;67.91;98239.16;5111067;28;40044;-85
2023/11/25 10:52:44;;;;;;;9.70;2.30;;;;;;;7.78;69.16;98244.34;5077078;28;40807;-83
2023/11/25 10:55:15;;;;;;;5.13;2.17;;;;;;;7.74;69.43;98245.44;5076468;28;44177;-83
2023/11/25 10:57:46;;;;;;;5.23;2.13;;;;;;;7.42;70.03;98186.78;5076685;28;42008;-83
2023/11/25 11:00:17;;;;;;;4.93;2.13;;;;;;;7.55;70.68;98220.19;5091822;28;40054;-82
2023/11/25 11:02:49;;;;;;;5.93;1.77;;;;;;;7.58;70.84;98237.63;5076974;28;42319;-84
2023/11/25 11:05:23;;;;;;;5.73;2.20;;;;;;;7.51;70.86;98231.03;5076323;28;41948;-85
2023/11/25 11:08:01;;;;;;;3.77;1.73;;;;;;;7.52;71.26;98238.00;5076611;28;42508;-83
2023/11/25 11:10:42;;;;;;;3.93;2.07;;;;;;;7.34;72.44;98218.84;5076165;28;38588;-84
2023/11/25 11:13:13;;;;;;;7.20;2.27;;;;;;;7.35;72.88;98217.94;5076865;28;40522;-82
2023/11/25 11:15:44;;;;;;;6.93;2.00;;;;;;;7.26;72.81;98191.28;5076521;28;41742;-82
2023/11/25 11:18:19;;;;;;;4.37;1.67;;;;;;;7.27;73.34;98199.09;5076352;28;42663;-86
2023/11/25 11:20:49;;;;;;;3.90;2.00;;;;;;;7.21;74.61;98199.47;5090875;28;39910;-84
2023/11/25 11:23:19;;;;;;;4.50;2.20;;;;;;;7.17;74.88;98205.88;5076399;28;42038;-84
2023/11/25 11:25:57;;;;;;;5.23;1.90;;;;;;;7.01;76.30;98181.38;5076210;28;42778;-83
2023/11/25 11:28:37;;;;;;;4.33;1.73;;;;;;;6.84;78.03;98170.03;5090192;28;42894;-83
2023/11/25 11:31:47;;;;;;;5.03;1.87;;;;;;;6.88;78.98;98185.66;5093242;28;38842;-84
2023/11/25 12:32:49;;;;;;;7.00;1.53;;;;;;;7.45;88.69;98086.50;5109691;28;20549;-83
2023/11/25 12:35:16;;;;;;;8.17;1.90;;;;;;;7.58;85.08;98101.44;5108629;28;38828;-80
2023/11/25 12:37:45;;;;;;;6.63;1.43;;;;;;;7.75;81.57;98107.47;5091846;28;41084;-82
2023/11/25 12:40:21;;;;;;;5.13;1.53;;;;;;;7.84;78.44;98098.97;5142674;27;42792;-85
2023/11/25 12:42:50;;;;;;;3.93;1.43;;;;;;;7.97;77.82;98094.59;5091680;28;42154;-83
2023/11/25 12:45:34;;;;;;;5.93;1.73;;;;;;;8.18;76.15;98090.56;5091200;28;40289;-82
2023/11/25 12:48:05;;;;;;;5.30;1.63;;;;;;;8.32;74.94;98096.78;5106528;28;41936;-82
2023/11/25 12:50:34;;;;;;;4.30;1.00;;;;;;;8.40;73.75;98110.34;5091350;28;41731;-83
2023/11/25 12:53:04;;;;;;;4.50;1.50;;;;;;;8.22;73.40;98110.53;5091459;28;41188;-81
2023/11/25 12:55:39;;;;;;;5.43;1.43;;;;;;;8.12;72.82;98106.81;5108221;28;38973;-82
2023/11/25 12:58:08;;;;;;;2.80;1.30;;;;;;;8.04;72.84;98113.50;5109971;28;40617;-85
2023/11/25 13:00:36;;;;;;;2.07;1.00;;;;;;;8.08;73.74;98121.13;5115272;28;43580;-81
2023/11/25 13:03:07;;;;;;;2.20;1.33;;;;;;;8.00;73.46;98114.66;5106980;28;41410;-80
2023/11/25 13:05:35;;;;;;;3.73;1.13;;;;;;;7.83;73.40;98099.91;5091838;28;39030;-84
2023/11/25 13:08:23;;;;;;;2.97;1.30;;;;;;;7.83;73.61;98099.91;5108485;28;42582;-83
2023/11/25 13:10:51;;;;;;;4.27;1.17;;;;;;;7.84;73.26;98110.34;5090728;28;41984;-86
2023/11/25 13:13:20;;;;;;;2.77;1.67;;;;;;;7.86;73.84;98102.34;5091338;28;43612;-83
2023/11/25 13:15:47;;;;;;;5.17;1.60;;;;;;;8.11;73.69;98113.03;5091289;28;38875;-84
2023/11/25 13:18:16;;;;;;;5.87;1.30;;;;;;;8.19;73.59;98089.63;5108367;28;42114;-82
2023/11/25 13:20:44;;;;;;;3.57;1.30;;;;;;;8.35;72.49;98097.44;5108180;28;43869;-82
2023/11/25 13:23:12;;;;;;;3.93;1.37;;;;;;;8.25;72.72;98081.34;5091327;28;41157;-81
2023/11/25 13:25:39;;;;;;;2.17;1.10;;;;;;;8.27;72.40;98097.91;5091244;28;39769;-81
2023/11/25 13:28:09;;;;;;;3.30;1.30;;;;;;;8.04;72.52;98066.88;5091143;28;41007;-81
2023/11/25 13:30:36;;;;;;;3.53;1.33;;;;;;;8.15;72.09;98088.16;5090135;28;41820;-82
2023/11/25 13:33:04;;;;;;;1.77;1.00;;;;;;;8.23;72.36;98085.88;5106006;28;42244;-83
2023/11/25 13:35:36;;;;;;;5.63;1.53;;;;;;;8.28;72.14;98073.19;5108443;28;39805;-84
2023/11/25 13:38:06;;;;;;;3.33;0.80;;;;;;;8.36;71.18;98087.72;5091346;28;40975;-81
2023/11/25 13:40:34;;;;;;;2.60;0.90;;;;;;;8.16;71.30;98074.00;5090768;28;41740;-89
2023/11/25 13:43:04;;;;;;;2.07;1.20;;;;;;;8.15;71.83;98067.06;5134928;27;42130;-81
2023/11/25 13:45:32;;;;;;;2.30;1.13;;;;;;;8.11;72.31;98060.28;5077171;28;39103;-84
2023/11/25 13:48:04;;;;;;;2.67;1.00;;;;;;;8.22;72.24;98063.06;5077070;28;43262;-84
2023/11/25 13:50:34;;;;;;;3.13;1.20;;;;;;;8.47;72.05;98067.59;5093724;28;41588;-82
2023/11/25 13:53:04;;;;;;;6.63;1.03;;;;;;;8.65;71.60;98071.63;5077137;28;41944;-84
2023/11/25 13:55:36;;;;;;;3.33;1.10;;;;;;;8.55;71.18;98065.28;5094984;28;40697;-88
2023/11/25 13:58:05;;;;;;;1.93;1.20;;;;;;;8.60;70.51;98065.00;5090953;28;42909;-85
2023/11/25 14:00:34;;;;;;;4.33;1.37;;;;;;;8.76;71.35;98049.81;5093767;28;41902;-83
2023/11/25 14:03:01;;;;;;;1.83;0.70;;;;;;;8.98;70.34;98067.66;5094022;28;42816;-83
2023/11/25 14:05:30;;;;;;;1.93;0.90;;;;;;;8.93;69.12;98065.34;5094205;28;40163;-82
2023/11/25 14:07:59;;;;;;;2.93;1.27;;;;;;;8.90;69.02;98064.72;5076984;28;40806;-84
2023/11/25 14:10:26;;;;;;;1.63;0.97;;;;;;;8.76;69.56;98052.47;5076597;28;41892;-89
2023/11/25 14:12:54;;;;;;;1.20;0.97;;;;;;;8.69;69.74;98045.88;5093849;28;42422;-85
2023/11/25 14:15:22;;;;;;;4.37;1.10;;;;;;;8.61;70.03;98037.66;5076759;28;38867;-82
2023/11/25 14:17:49;;;;;;;4.83;1.20;;;;;;;8.48;70.34;98034.16;5093557;28;40846;-84
2023/11/25 14:20:17;;;;;;;1.67;1.13;;;;;;;8.37;70.44;98034.03;5076386;28;42111;-86
2023/11/25 14:22:45;;;;;;;2.50;1.00;;;;;;;8.15;71.09;98027.50;5095054;28;42128;-83
2023/11/25 14:25:16;;;;;;;2.13;0.80;;;;;;;8.18;71.93;98039.63;5076795;28;39133;-81
2023/11/25 14:27:44;;;;;;;1.40;0.80;;;;;;;8.04;72.38;98029.97;5076831;28;42189;-82
2023/11/25 14:30:17;;;;;;;2.40;1.40;;;;;;;7.90;72.52;98035.31;5076598;28;42936;-84
2023/11/25 14:32:46;;;;;;;1.10;1.00;;;;;;;7.91;72.69;98031.75;5091599;28;41954;-87
2023/11/25 14:35:14;;;;;;;1.93;1.17;;;;;;;7.95;73.07;98043.75;5093624;28;39935;-81
2023/11/25 14:37:43;;;;;;;1.73;1.10;;;;;;;8.01;73.20;98048.66;5110588;28;40802;-85
2023/11/25 14:40:14;;;;;;;3.53;1.30;;;;;;;7.94;73.47;98036.81;5076070;28;41419;-84
2023/11/25 14:42:43;;;;;;;1.17;0.90;;;;;;;7.81;74.19;98036.75;5076760;28;40867;-84
2023/11/25 14:45:12;;;;;;;1.00;0.90;;;;;;;7.72;74.60;98026.81;5076669;28;38835;-83
